sensor_id;sensor_type;location;lat;lon;timestamp;P1;durP1;ratioP1;P2;durP2;ratioP2
25045;SDS011;13044;49.304;12.840;2022-12-07T00:01:34;4.20;;;3.53;;
25045;SDS011;13044;49.304;12.840;2022-12-07T00:04:05;4.10;;;3.42;;
25045;SDS011;13044;49.304;12.840;2022-12-07T00:06:38;3.80;;;3.40;;
25045;SDS011;13044;49.304;12.840;2022-12-07T00:09:11;6.50;;;3.72;;
25045;SDS011;13044;49.304;12.840;2022-12-07T00:11:41;3.58;;;3.08;;
25045;SDS011;13044;49.304;12.840;2022-12-07T00:14:12;4.97;;;3.53;;
25045;SDS011;13044;49.304;12.840;2022-12-07T00:16:41;4.80;;;3.72;;
25045;SDS011;13044;49.304;12.840;2022-12-07T00:19:10;4.20;;;3.38;;
25045;SDS011;13044;49.304;12.840;2022-12-07T00:21:39;5.65;;;3.28;;
25045;SDS011;13044;49.304;12.840;2022-12-07T00:24:06;4.85;;;3.35;;
25045;SDS011;13044;49.304;12.840;2022-12-07T00:26:34;3.88;;;3.13;;
25045;SDS011;13044;49.304;12.840;2022-12-07T00:29:07;4.47;;;3.47;;
25045;SDS011;13044;49.304;12.840;2022-12-07T00:31:41;4.43;;;3.80;;
25045;SDS011;13044;49.304;12.840;2022-12-07T00:34:11;4.53;;;3.28;;
25045;SDS011;13044;49.304;12.840;2022-12-07T00:36:41;4.07;;;3.63;;
25045;SDS011;13044;49.304;12.840;2022-12-07T00:39:08;4.38;;;3.63;;
25045;SDS011;13044;49.304;12.840;2022-12-07T00:41:35;4.32;;;3.75;;
25045;SDS011;13044;49.304;12.840;2022-12-07T00:44:02;4.95;;;3.90;;
25045;SDS011;13044;49.304;12.840;2022-12-07T00:46:29;4.38;;;3.83;;
25045;SDS011;13044;49.304;12.840;2022-12-07T00:48:56;4.72;;;3.83;;
25045;SDS011;13044;49.304;12.840;2022-12-07T00:51:24;5.10;;;3.92;;
25045;SDS011;13044;49.304;12.840;2022-12-07T00:53:51;3.90;;;3.30;;
25045;SDS011;13044;49.304;12.840;2022-12-07T00:56:26;5.22;;;4.05;;
25045;SDS011;13044;49.304;12.840;2022-12-07T00:58:58;4.93;;;3.85;;
25045;SDS011;13044;49.304;12.840;2022-12-07T01:01:28;4.00;;;3.53;;
25045;SDS011;13044;49.304;12.840;2022-12-07T01:03:58;5.28;;;3.97;;
25045;SDS011;13044;49.304;12.840;2022-12-07T01:06:27;3.75;;;3.35;;
25045;SDS011;13044;49.304;12.840;2022-12-07T01:08:54;4.45;;;3.50;;
25045;SDS011;13044;49.304;12.840;2022-12-07T01:11:23;4.82;;;4.07;;
25045;SDS011;13044;49.304;12.840;2022-12-07T01:13:54;3.28;;;2.60;;
25045;SDS011;13044;49.304;12.840;2022-12-07T01:16:23;7.95;;;4.38;;
25045;SDS011;13044;49.304;12.840;2022-12-07T01:18:53;4.95;;;4.00;;
25045;SDS011;13044;49.304;12.840;2022-12-07T01:21:22;4.00;;;3.28;;
25045;SDS011;13044;49.304;12.840;2022-12-07T01:23:52;4.07;;;3.63;;
25045;SDS011;13044;49.304;12.840;2022-12-07T01:26:22;4.75;;;3.70;;
25045;SDS011;13044;49.304;12.840;2022-12-07T01:28:51;4.90;;;4.00;;
25045;SDS011;13044;49.304;12.840;2022-12-07T01:31:21;4.97;;;3.60;;
25045;SDS011;13044;49.304;12.840;2022-12-07T01:33:52;5.22;;;3.60;;
25045;SDS011;13044;49.304;12.840;2022-12-07T01:36:23;6.70;;;3.90;;
25045;SDS011;13044;49.304;12.840;2022-12-07T01:38:51;5.05;;;3.90;;
25045;SDS011;13044;49.304;12.840;2022-12-07T01:41:23;5.68;;;4.13;;
25045;SDS011;13044;49.304;12.840;2022-12-07T01:46:49;5.30;;;3.47;;
25045;SDS011;13044;49.304;12.840;2022-12-07T01:51:55;3.92;;;3.53;;
25045;SDS011;13044;49.304;12.840;2022-12-07T01:54:30;6.13;;;3.70;;
25045;SDS011;13044;49.304;12.840;2022-12-07T01:56:59;4.07;;;3.65;;
25045;SDS011;13044;49.304;12.840;2022-12-07T01:59:26;4.50;;;3.95;;
25045;SDS011;13044;49.304;12.840;2022-12-07T02:01:54;4.00;;;3.30;;
25045;SDS011;13044;49.304;12.840;2022-12-07T02:04:22;5.10;;;3.70;;
25045;SDS011;13044;49.304;12.840;2022-12-07T02:06:49;5.10;;;3.92;;
25045;SDS011;13044;49.304;12.840;2022-12-07T02:09:17;5.53;;;4.15;;
25045;SDS011;13044;49.304;12.840;2022-12-07T02:11:44;5.15;;;4.45;;
25045;SDS011;13044;49.304;12.840;2022-12-07T02:14:11;4.95;;;4.05;;
25045;SDS011;13044;49.304;12.840;2022-12-07T02:16:44;5.20;;;4.18;;
25045;SDS011;13044;49.304;12.840;2022-12-07T02:19:57;7.13;;;4.10;;
25045;SDS011;13044;49.304;12.840;2022-12-07T02:22:47;4.60;;;3.70;;
25045;SDS011;13044;49.304;12.840;2022-12-07T02:29:02;4.63;;;3.97;;
25045;SDS011;13044;49.304;12.840;2022-12-07T02:35:03;6.28;;;4.47;;
25045;SDS011;13044;49.304;12.840;2022-12-07T02:42:59;5.95;;;4.53;;
25045;SDS011;13044;49.304;12.840;2022-12-07T02:45:40;6.25;;;5.35;;
25045;SDS011;13044;49.304;12.840;2022-12-07T02:48:10;6.60;;;5.20;;
25045;SDS011;13044;49.304;12.840;2022-12-07T02:50:43;6.32;;;4.95;;
25045;SDS011;13044;49.304;12.840;2022-12-07T02:58:49;5.55;;;4.60;;
25045;SDS011;13044;49.304;12.840;2022-12-07T03:18:50;8.52;;;6.30;;
25045;SDS011;13044;49.304;12.840;2022-12-07T03:22:12;8.55;;;6.63;;
25045;SDS011;13044;49.304;12.840;2022-12-07T03:24:27;8.05;;;6.35;;
25045;SDS011;13044;49.304;12.840;2022-12-07T03:27:05;7.40;;;6.18;;
25045;SDS011;13044;49.304;12.840;2022-12-07T03:30:07;8.80;;;6.38;;
25045;SDS011;13044;49.304;12.840;2022-12-07T03:32:51;8.70;;;6.35;;
25045;SDS011;13044;49.304;12.840;2022-12-07T03:35:45;9.27;;;5.85;;
25045;SDS011;13044;49.304;12.840;2022-12-07T03:41:05;7.55;;;5.85;;
25045;SDS011;13044;49.304;12.840;2022-12-07T03:43:38;6.35;;;5.50;;
25045;SDS011;13044;49.304;12.840;2022-12-07T03:57:25;7.18;;;5.93;;
25045;SDS011;13044;49.304;12.840;2022-12-07T03:59:54;7.05;;;6.20;;
25045;SDS011;13044;49.304;12.840;2022-12-07T04:02:23;6.70;;;5.47;;
25045;SDS011;13044;49.304;12.840;2022-12-07T04:04:52;6.32;;;5.35;;
25045;SDS011;13044;49.304;12.840;2022-12-07T04:07:20;9.13;;;5.97;;
25045;SDS011;13044;49.304;12.840;2022-12-07T04:09:47;7.90;;;5.82;;
25045;SDS011;13044;49.304;12.840;2022-12-07T04:12:14;7.70;;;6.38;;
25045;SDS011;13044;49.304;12.840;2022-12-07T04:14:41;7.30;;;6.00;;
25045;SDS011;13044;49.304;12.840;2022-12-07T04:17:08;8.02;;;5.60;;
25045;SDS011;13044;49.304;12.840;2022-12-07T04:19:35;9.93;;;7.18;;
25045;SDS011;13044;49.304;12.840;2022-12-07T04:22:03;9.95;;;6.55;;
25045;SDS011;13044;49.304;12.840;2022-12-07T04:24:31;8.52;;;6.82;;
25045;SDS011;13044;49.304;12.840;2022-12-07T04:26:59;7.90;;;6.40;;
25045;SDS011;13044;49.304;12.840;2022-12-07T04:29:26;10.27;;;7.80;;
25045;SDS011;13044;49.304;12.840;2022-12-07T04:31:53;10.02;;;7.63;;
25045;SDS011;13044;49.304;12.840;2022-12-07T04:34:20;9.50;;;7.15;;
25045;SDS011;13044;49.304;12.840;2022-12-07T04:36:47;11.38;;;8.05;;
25045;SDS011;13044;49.304;12.840;2022-12-07T04:39:21;9.10;;;7.20;;
25045;SDS011;13044;49.304;12.840;2022-12-07T04:41:52;8.23;;;6.72;;
25045;SDS011;13044;49.304;12.840;2022-12-07T04:44:19;10.57;;;8.15;;
25045;SDS011;13044;49.304;12.840;2022-12-07T04:46:47;11.48;;;8.50;;
25045;SDS011;13044;49.304;12.840;2022-12-07T04:49:14;10.30;;;8.10;;
25045;SDS011;13044;49.304;12.840;2022-12-07T04:51:42;10.20;;;7.85;;
25045;SDS011;13044;49.304;12.840;2022-12-07T04:54:10;10.82;;;8.57;;
25045;SDS011;13044;49.304;12.840;2022-12-07T04:56:38;13.02;;;8.82;;
25045;SDS011;13044;49.304;12.840;2022-12-07T04:59:05;12.88;;;9.18;;
25045;SDS011;13044;49.304;12.840;2022-12-07T05:01:32;11.20;;;8.63;;
25045;SDS011;13044;49.304;12.840;2022-12-07T05:04:00;9.73;;;7.65;;
25045;SDS011;13044;49.304;12.840;2022-12-07T05:06:26;10.90;;;8.00;;
25045;SDS011;13044;49.304;12.840;2022-12-07T05:08:53;12.77;;;9.07;;
25045;SDS011;13044;49.304;12.840;2022-12-07T05:11:20;13.68;;;9.18;;
25045;SDS011;13044;49.304;12.840;2022-12-07T05:14:19;11.75;;;9.20;;
25045;SDS011;13044;49.304;12.840;2022-12-07T05:16:48;12.43;;;9.55;;
25045;SDS011;13044;49.304;12.840;2022-12-07T05:19:17;13.82;;;9.90;;
25045;SDS011;13044;49.304;12.840;2022-12-07T05:21:45;16.10;;;9.80;;
25045;SDS011;13044;49.304;12.840;2022-12-07T05:24:13;12.57;;;9.23;;
25045;SDS011;13044;49.304;12.840;2022-12-07T05:26:41;12.63;;;9.30;;
25045;SDS011;13044;49.304;12.840;2022-12-07T05:29:13;13.68;;;9.45;;
25045;SDS011;13044;49.304;12.840;2022-12-07T05:31:42;13.63;;;9.40;;
25045;SDS011;13044;49.304;12.840;2022-12-07T05:34:10;14.88;;;9.68;;
25045;SDS011;13044;49.304;12.840;2022-12-07T05:36:37;11.75;;;9.05;;
25045;SDS011;13044;49.304;12.840;2022-12-07T05:39:04;12.90;;;9.80;;
25045;SDS011;13044;49.304;12.840;2022-12-07T05:41:32;11.10;;;9.02;;
25045;SDS011;13044;49.304;12.840;2022-12-07T05:44:17;11.85;;;9.05;;
25045;SDS011;13044;49.304;12.840;2022-12-07T05:46:44;11.35;;;8.75;;
25045;SDS011;13044;49.304;12.840;2022-12-07T05:49:11;14.23;;;9.65;;
25045;SDS011;13044;49.304;12.840;2022-12-07T05:51:38;12.70;;;9.25;;
25045;SDS011;13044;49.304;12.840;2022-12-07T05:54:05;13.13;;;9.55;;
25045;SDS011;13044;49.304;12.840;2022-12-07T05:56:32;16.67;;;9.70;;
25045;SDS011;13044;49.304;12.840;2022-12-07T05:58:58;15.65;;;10.30;;
25045;SDS011;13044;49.304;12.840;2022-12-07T06:01:44;13.60;;;9.45;;
25045;SDS011;13044;49.304;12.840;2022-12-07T06:04:10;11.00;;;7.53;;
25045;SDS011;13044;49.304;12.840;2022-12-07T06:06:37;15.57;;;9.35;;
25045;SDS011;13044;49.304;12.840;2022-12-07T06:09:04;12.57;;;9.55;;
25045;SDS011;13044;49.304;12.840;2022-12-07T06:11:32;14.50;;;10.25;;
25045;SDS011;13044;49.304;12.840;2022-12-07T06:14:17;13.38;;;9.85;;
25045;SDS011;13044;49.304;12.840;2022-12-07T06:16:44;15.38;;;9.85;;
25045;SDS011;13044;49.304;12.840;2022-12-07T06:19:11;13.27;;;9.38;;
25045;SDS011;13044;49.304;12.840;2022-12-07T06:21:38;13.52;;;9.82;;
25045;SDS011;13044;49.304;12.840;2022-12-07T06:24:05;12.57;;;9.02;;
25045;SDS011;13044;49.304;12.840;2022-12-07T06:26:32;12.02;;;8.65;;
25045;SDS011;13044;49.304;12.840;2022-12-07T06:28:59;14.35;;;10.05;;
25045;SDS011;13044;49.304;12.840;2022-12-07T06:31:25;11.90;;;8.77;;
25045;SDS011;13044;49.304;12.840;2022-12-07T06:33:56;14.68;;;9.77;;
25045;SDS011;13044;49.304;12.840;2022-12-07T06:36:25;13.05;;;9.40;;
25045;SDS011;13044;49.304;12.840;2022-12-07T06:38:52;12.23;;;9.13;;
25045;SDS011;13044;49.304;12.840;2022-12-07T06:41:19;12.23;;;9.63;;
25045;SDS011;13044;49.304;12.840;2022-12-07T06:43:46;15.02;;;10.25;;
25045;SDS011;13044;49.304;12.840;2022-12-07T06:46:21;16.90;;;10.35;;
25045;SDS011;13044;49.304;12.840;2022-12-07T06:48:48;13.18;;;9.18;;
25045;SDS011;13044;49.304;12.840;2022-12-07T06:51:15;15.60;;;9.73;;
25045;SDS011;13044;49.304;12.840;2022-12-07T06:53:42;13.10;;;9.43;;
25045;SDS011;13044;49.304;12.840;2022-12-07T06:56:09;13.43;;;9.52;;
25045;SDS011;13044;49.304;12.840;2022-12-07T06:58:35;12.88;;;9.30;;
25045;SDS011;13044;49.304;12.840;2022-12-07T07:01:02;14.43;;;9.93;;
25045;SDS011;13044;49.304;12.840;2022-12-07T07:03:35;16.73;;;11.40;;
25045;SDS011;13044;49.304;12.840;2022-12-07T07:06:02;15.43;;;11.07;;
25045;SDS011;13044;49.304;12.840;2022-12-07T07:08:29;15.55;;;10.52;;
25045;SDS011;13044;49.304;12.840;2022-12-07T07:10:56;16.83;;;10.63;;
25045;SDS011;13044;49.304;12.840;2022-12-07T07:13:23;17.05;;;10.38;;
25045;SDS011;13044;49.304;12.840;2022-12-07T07:15:50;16.38;;;10.85;;
25045;SDS011;13044;49.304;12.840;2022-12-07T07:18:17;15.95;;;10.95;;
25045;SDS011;13044;49.304;12.840;2022-12-07T07:20:44;15.57;;;11.00;;
25045;SDS011;13044;49.304;12.840;2022-12-07T07:23:11;16.30;;;11.38;;
25045;SDS011;13044;49.304;12.840;2022-12-07T07:25:38;15.85;;;10.95;;
25045;SDS011;13044;49.304;12.840;2022-12-07T07:28:05;17.50;;;11.15;;
25045;SDS011;13044;49.304;12.840;2022-12-07T07:30:32;28.40;;;15.07;;
25045;SDS011;13044;49.304;12.840;2022-12-07T07:32:59;22.27;;;13.20;;
25045;SDS011;13044;49.304;12.840;2022-12-07T07:35:29;29.23;;;14.82;;
25045;SDS011;13044;49.304;12.840;2022-12-07T07:37:58;19.98;;;13.50;;
25045;SDS011;13044;49.304;12.840;2022-12-07T07:40:25;17.67;;;11.85;;
25045;SDS011;13044;49.304;12.840;2022-12-07T07:42:53;15.82;;;11.07;;
25045;SDS011;13044;49.304;12.840;2022-12-07T07:45:21;17.48;;;11.38;;
25045;SDS011;13044;49.304;12.840;2022-12-07T07:47:49;20.65;;;11.50;;
25045;SDS011;13044;49.304;12.840;2022-12-07T07:50:17;17.52;;;11.30;;
25045;SDS011;13044;49.304;12.840;2022-12-07T07:52:45;18.48;;;11.10;;
25045;SDS011;13044;49.304;12.840;2022-12-07T07:55:12;17.15;;;11.27;;
25045;SDS011;13044;49.304;12.840;2022-12-07T07:57:39;16.00;;;10.93;;
25045;SDS011;13044;49.304;12.840;2022-12-07T08:00:08;18.08;;;11.38;;
25045;SDS011;13044;49.304;12.840;2022-12-07T08:02:40;19.52;;;12.70;;
25045;SDS011;13044;49.304;12.840;2022-12-07T08:05:10;19.75;;;12.60;;
25045;SDS011;13044;49.304;12.840;2022-12-07T08:07:38;18.20;;;12.18;;
25045;SDS011;13044;49.304;12.840;2022-12-07T08:10:05;16.73;;;11.50;;
25045;SDS011;13044;49.304;12.840;2022-12-07T08:12:35;17.50;;;12.30;;
25045;SDS011;13044;49.304;12.840;2022-12-07T08:15:27;17.10;;;11.50;;
25045;SDS011;13044;49.304;12.840;2022-12-07T08:17:55;18.52;;;12.18;;
25045;SDS011;13044;49.304;12.840;2022-12-07T08:20:22;20.10;;;12.30;;
25045;SDS011;13044;49.304;12.840;2022-12-07T08:22:49;18.95;;;13.23;;
25045;SDS011;13044;49.304;12.840;2022-12-07T08:25:16;18.30;;;11.90;;
25045;SDS011;13044;49.304;12.840;2022-12-07T08:27:43;21.27;;;13.45;;
25045;SDS011;13044;49.304;12.840;2022-12-07T08:30:10;16.63;;;11.60;;
25045;SDS011;13044;49.304;12.840;2022-12-07T08:32:37;20.63;;;12.80;;
25045;SDS011;13044;49.304;12.840;2022-12-07T08:35:04;18.23;;;12.40;;
25045;SDS011;13044;49.304;12.840;2022-12-07T08:37:32;18.55;;;11.85;;
25045;SDS011;13044;49.304;12.840;2022-12-07T08:39:59;16.92;;;11.60;;
25045;SDS011;13044;49.304;12.840;2022-12-07T08:42:26;14.68;;;9.45;;
25045;SDS011;13044;49.304;12.840;2022-12-07T08:44:56;17.95;;;12.40;;
25045;SDS011;13044;49.304;12.840;2022-12-07T08:47:23;20.63;;;12.82;;
25045;SDS011;13044;49.304;12.840;2022-12-07T08:49:51;15.02;;;10.65;;
25045;SDS011;13044;49.304;12.840;2022-12-07T08:52:19;19.95;;;11.48;;
25045;SDS011;13044;49.304;12.840;2022-12-07T08:54:46;19.20;;;12.32;;
25045;SDS011;13044;49.304;12.840;2022-12-07T08:57:13;18.88;;;12.77;;
25045;SDS011;13044;49.304;12.840;2022-12-07T08:59:40;19.50;;;12.20;;
25045;SDS011;13044;49.304;12.840;2022-12-07T09:02:07;19.02;;;12.23;;
25045;SDS011;13044;49.304;12.840;2022-12-07T09:04:34;18.02;;;12.52;;
25045;SDS011;13044;49.304;12.840;2022-12-07T09:07:01;17.83;;;11.27;;
25045;SDS011;13044;49.304;12.840;2022-12-07T09:09:28;17.35;;;11.80;;
25045;SDS011;13044;49.304;12.840;2022-12-07T09:11:54;20.15;;;12.65;;
25045;SDS011;13044;49.304;12.840;2022-12-07T09:14:21;19.85;;;11.90;;
25045;SDS011;13044;49.304;12.840;2022-12-07T09:16:48;20.05;;;12.18;;
25045;SDS011;13044;49.304;12.840;2022-12-07T09:19:15;20.27;;;12.45;;
25045;SDS011;13044;49.304;12.840;2022-12-07T09:21:42;20.75;;;13.10;;
25045;SDS011;13044;49.304;12.840;2022-12-07T09:24:09;22.48;;;13.57;;
25045;SDS011;13044;49.304;12.840;2022-12-07T09:26:38;22.23;;;13.57;;
25045;SDS011;13044;49.304;12.840;2022-12-07T09:29:06;20.55;;;12.75;;
25045;SDS011;13044;49.304;12.840;2022-12-07T09:31:35;14.55;;;9.57;;
25045;SDS011;13044;49.304;12.840;2022-12-07T09:34:03;17.00;;;11.70;;
25045;SDS011;13044;49.304;12.840;2022-12-07T09:36:31;18.70;;;11.85;;
25045;SDS011;13044;49.304;12.840;2022-12-07T09:38:58;21.75;;;12.68;;
25045;SDS011;13044;49.304;12.840;2022-12-07T09:41:26;17.95;;;11.63;;
25045;SDS011;13044;49.304;12.840;2022-12-07T09:43:58;19.63;;;12.75;;
25045;SDS011;13044;49.304;12.840;2022-12-07T09:46:39;20.17;;;13.20;;
25045;SDS011;13044;49.304;12.840;2022-12-07T09:49:12;21.08;;;12.50;;
25045;SDS011;13044;49.304;12.840;2022-12-07T09:52:16;22.92;;;13.18;;
25045;SDS011;13044;49.304;12.840;2022-12-07T09:54:50;16.83;;;11.40;;
25045;SDS011;13044;49.304;12.840;2022-12-07T09:57:27;19.23;;;12.07;;
25045;SDS011;13044;49.304;12.840;2022-12-07T09:59:57;17.30;;;11.20;;
25045;SDS011;13044;49.304;12.840;2022-12-07T10:02:39;19.70;;;11.80;;
25045;SDS011;13044;49.304;12.840;2022-12-07T10:05:14;19.80;;;11.73;;
25045;SDS011;13044;49.304;12.840;2022-12-07T10:07:50;16.17;;;11.23;;
25045;SDS011;13044;49.304;12.840;2022-12-07T10:10:23;18.92;;;11.95;;
25045;SDS011;13044;49.304;12.840;2022-12-07T10:18:38;22.00;;;11.70;;
25045;SDS011;13044;49.304;12.840;2022-12-07T10:23:35;15.63;;;10.93;;
25045;SDS011;13044;49.304;12.840;2022-12-07T10:32:03;18.52;;;12.20;;
25045;SDS011;13044;49.304;12.840;2022-12-07T10:34:42;14.38;;;8.73;;
25045;SDS011;13044;49.304;12.840;2022-12-07T10:37:18;19.20;;;11.23;;
25045;SDS011;13044;49.304;12.840;2022-12-07T10:39:52;18.05;;;11.30;;
25045;SDS011;13044;49.304;12.840;2022-12-07T10:42:24;18.10;;;11.70;;
25045;SDS011;13044;49.304;12.840;2022-12-07T10:47:49;17.63;;;11.73;;
25045;SDS011;13044;49.304;12.840;2022-12-07T10:56:14;20.55;;;11.82;;
25045;SDS011;13044;49.304;12.840;2022-12-07T11:02:01;16.60;;;10.35;;
25045;SDS011;13044;49.304;12.840;2022-12-07T11:04:55;15.75;;;10.10;;
25045;SDS011;13044;49.304;12.840;2022-12-07T11:07:42;23.63;;;13.10;;
25045;SDS011;13044;49.304;12.840;2022-12-07T11:13:21;15.05;;;9.75;;
25045;SDS011;13044;49.304;12.840;2022-12-07T11:22:09;15.43;;;8.20;;
25045;SDS011;13044;49.304;12.840;2022-12-07T11:27:52;14.98;;;9.77;;
25045;SDS011;13044;49.304;12.840;2022-12-07T11:37:02;15.80;;;10.23;;
25045;SDS011;13044;49.304;12.840;2022-12-07T11:39:41;19.77;;;11.07;;
25045;SDS011;13044;49.304;12.840;2022-12-07T11:44:52;19.50;;;11.43;;
25045;SDS011;13044;49.304;12.840;2022-12-07T11:47:34;15.95;;;10.20;;
25045;SDS011;13044;49.304;12.840;2022-12-07T12:06:37;19.88;;;9.75;;
25045;SDS011;13044;49.304;12.840;2022-12-07T12:09:11;13.57;;;8.85;;
25045;SDS011;13044;49.304;12.840;2022-12-07T12:15:09;15.35;;;9.80;;
25045;SDS011;13044;49.304;12.840;2022-12-07T12:17:54;16.73;;;9.52;;
25045;SDS011;13044;49.304;12.840;2022-12-07T12:20:27;12.45;;;8.57;;
25045;SDS011;13044;49.304;12.840;2022-12-07T12:25:54;13.98;;;9.15;;
25045;SDS011;13044;49.304;12.840;2022-12-07T12:31:05;15.95;;;10.77;;
25045;SDS011;13044;49.304;12.840;2022-12-07T12:33:53;14.75;;;10.20;;
25045;SDS011;13044;49.304;12.840;2022-12-07T12:36:24;13.90;;;9.15;;
25045;SDS011;13044;49.304;12.840;2022-12-07T12:46:57;16.95;;;10.52;;
25045;SDS011;13044;49.304;12.840;2022-12-07T12:51:58;19.40;;;11.15;;
25045;SDS011;13044;49.304;12.840;2022-12-07T12:55:15;19.90;;;13.20;;
25045;SDS011;13044;49.304;12.840;2022-12-07T12:57:36;18.08;;;10.85;;
25045;SDS011;13044;49.304;12.840;2022-12-07T13:00:17;17.55;;;11.73;;
25045;SDS011;13044;49.304;12.840;2022-12-07T13:02:56;16.30;;;9.32;;
25045;SDS011;13044;49.304;12.840;2022-12-07T13:05:25;16.30;;;10.25;;
25045;SDS011;13044;49.304;12.840;2022-12-07T13:07:56;18.70;;;11.70;;
25045;SDS011;13044;49.304;12.840;2022-12-07T13:15:39;13.80;;;8.93;;
25045;SDS011;13044;49.304;12.840;2022-12-07T13:20:58;13.73;;;7.75;;
25045;SDS011;13044;49.304;12.840;2022-12-07T13:28:49;16.60;;;10.38;;
25045;SDS011;13044;49.304;12.840;2022-12-07T13:31:23;14.98;;;9.43;;
25045;SDS011;13044;49.304;12.840;2022-12-07T13:34:03;17.40;;;10.05;;
25045;SDS011;13044;49.304;12.840;2022-12-07T13:36:57;16.15;;;9.52;;
25045;SDS011;13044;49.304;12.840;2022-12-07T13:39:27;15.23;;;9.48;;
25045;SDS011;13044;49.304;12.840;2022-12-07T13:41:56;15.82;;;9.73;;
25045;SDS011;13044;49.304;12.840;2022-12-07T13:44:25;18.20;;;9.40;;
25045;SDS011;13044;49.304;12.840;2022-12-07T13:49:50;19.23;;;12.02;;
25045;SDS011;13044;49.304;12.840;2022-12-07T13:52:22;18.67;;;9.55;;
25045;SDS011;13044;49.304;12.840;2022-12-07T13:57:29;15.48;;;8.95;;
25045;SDS011;13044;49.304;12.840;2022-12-07T13:59:57;17.65;;;10.48;;
25045;SDS011;13044;49.304;12.840;2022-12-07T14:05:12;17.85;;;11.32;;
25045;SDS011;13044;49.304;12.840;2022-12-07T14:08:34;17.77;;;10.48;;
25045;SDS011;13044;49.304;12.840;2022-12-07T14:10:37;14.27;;;8.82;;
25045;SDS011;13044;49.304;12.840;2022-12-07T14:16:19;14.63;;;8.82;;
25045;SDS011;13044;49.304;12.840;2022-12-07T14:19:00;13.38;;;8.38;;
25045;SDS011;13044;49.304;12.840;2022-12-07T14:21:33;15.75;;;9.10;;
25045;SDS011;13044;49.304;12.840;2022-12-07T14:24:11;15.15;;;8.73;;
25045;SDS011;13044;49.304;12.840;2022-12-07T14:26:47;14.23;;;8.75;;
25045;SDS011;13044;49.304;12.840;2022-12-07T14:29:20;11.82;;;5.97;;
25045;SDS011;13044;49.304;12.840;2022-12-07T14:31:53;11.63;;;7.60;;
25045;SDS011;13044;49.304;12.840;2022-12-07T14:34:21;15.93;;;9.48;;
25045;SDS011;13044;49.304;12.840;2022-12-07T14:36:49;15.45;;;9.27;;
25045;SDS011;13044;49.304;12.840;2022-12-07T14:39:16;15.55;;;9.10;;
25045;SDS011;13044;49.304;12.840;2022-12-07T14:41:43;15.55;;;8.98;;
25045;SDS011;13044;49.304;12.840;2022-12-07T14:46:52;12.75;;;8.23;;
25045;SDS011;13044;49.304;12.840;2022-12-07T14:49:39;14.48;;;8.70;;
25045;SDS011;13044;49.304;12.840;2022-12-07T14:52:08;13.70;;;8.40;;
25045;SDS011;13044;49.304;12.840;2022-12-07T14:55:22;15.80;;;8.95;;
25045;SDS011;13044;49.304;12.840;2022-12-07T14:57:51;13.32;;;8.75;;
25045;SDS011;13044;49.304;12.840;2022-12-07T15:00:19;17.40;;;10.98;;
25045;SDS011;13044;49.304;12.840;2022-12-07T15:02:48;14.27;;;8.88;;
25045;SDS011;13044;49.304;12.840;2022-12-07T15:05:16;15.13;;;8.98;;
25045;SDS011;13044;49.304;12.840;2022-12-07T15:07:45;23.17;;;12.88;;
25045;SDS011;13044;49.304;12.840;2022-12-07T15:10:18;15.85;;;9.63;;
25045;SDS011;13044;49.304;12.840;2022-12-07T15:12:56;13.95;;;9.50;;
25045;SDS011;13044;49.304;12.840;2022-12-07T15:15:47;16.23;;;9.82;;
25045;SDS011;13044;49.304;12.840;2022-12-07T15:18:16;13.60;;;7.93;;
25045;SDS011;13044;49.304;12.840;2022-12-07T15:20:45;12.35;;;7.75;;
25045;SDS011;13044;49.304;12.840;2022-12-07T15:23:12;14.38;;;9.10;;
25045;SDS011;13044;49.304;12.840;2022-12-07T15:25:40;15.02;;;9.10;;
25045;SDS011;13044;49.304;12.840;2022-12-07T15:28:12;16.43;;;9.40;;
25045;SDS011;13044;49.304;12.840;2022-12-07T15:30:40;19.10;;;11.48;;
25045;SDS011;13044;49.304;12.840;2022-12-07T15:33:09;15.25;;;10.13;;
25045;SDS011;13044;49.304;12.840;2022-12-07T15:35:40;12.70;;;8.38;;
25045;SDS011;13044;49.304;12.840;2022-12-07T15:38:09;13.13;;;9.35;;
25045;SDS011;13044;49.304;12.840;2022-12-07T15:40:37;13.80;;;9.43;;
25045;SDS011;13044;49.304;12.840;2022-12-07T15:43:04;11.60;;;8.65;;
25045;SDS011;13044;49.304;12.840;2022-12-07T15:45:53;12.70;;;8.35;;
25045;SDS011;13044;49.304;12.840;2022-12-07T15:48:20;13.40;;;8.00;;
25045;SDS011;13044;49.304;12.840;2022-12-07T15:51:05;15.80;;;9.60;;
25045;SDS011;13044;49.304;12.840;2022-12-07T15:53:34;22.25;;;12.05;;
25045;SDS011;13044;49.304;12.840;2022-12-07T15:56:05;18.33;;;10.95;;
25045;SDS011;13044;49.304;12.840;2022-12-07T15:58:34;11.57;;;7.88;;
25045;SDS011;13044;49.304;12.840;2022-12-07T16:01:09;15.20;;;9.55;;
25045;SDS011;13044;49.304;12.840;2022-12-07T16:03:44;15.57;;;9.57;;
25045;SDS011;13044;49.304;12.840;2022-12-07T16:06:14;15.35;;;9.63;;
25045;SDS011;13044;49.304;12.840;2022-12-07T16:08:46;14.02;;;9.18;;
25045;SDS011;13044;49.304;12.840;2022-12-07T16:11:13;13.32;;;8.65;;
25045;SDS011;13044;49.304;12.840;2022-12-07T16:13:40;14.73;;;9.38;;
25045;SDS011;13044;49.304;12.840;2022-12-07T16:16:09;11.18;;;7.80;;
25045;SDS011;13044;49.304;12.840;2022-12-07T16:18:42;12.93;;;7.95;;
25045;SDS011;13044;49.304;12.840;2022-12-07T16:21:11;17.45;;;9.48;;
25045;SDS011;13044;49.304;12.840;2022-12-07T16:23:39;13.60;;;8.82;;
25045;SDS011;13044;49.304;12.840;2022-12-07T16:26:07;12.88;;;8.93;;
25045;SDS011;13044;49.304;12.840;2022-12-07T16:28:43;12.68;;;8.50;;
25045;SDS011;13044;49.304;12.840;2022-12-07T16:31:11;15.75;;;9.73;;
25045;SDS011;13044;49.304;12.840;2022-12-07T16:33:41;17.23;;;10.20;;
25045;SDS011;13044;49.304;12.840;2022-12-07T16:36:10;16.10;;;9.48;;
25045;SDS011;13044;49.304;12.840;2022-12-07T16:38:39;14.18;;;10.10;;
25045;SDS011;13044;49.304;12.840;2022-12-07T16:41:06;15.10;;;9.07;;
25045;SDS011;13044;49.304;12.840;2022-12-07T16:43:34;20.50;;;11.63;;
25045;SDS011;13044;49.304;12.840;2022-12-07T16:46:02;25.67;;;12.55;;
25045;SDS011;13044;49.304;12.840;2022-12-07T16:48:30;28.83;;;13.45;;
25045;SDS011;13044;49.304;12.840;2022-12-07T16:50:57;16.65;;;10.00;;
25045;SDS011;13044;49.304;12.840;2022-12-07T16:53:31;25.88;;;14.00;;
25045;SDS011;13044;49.304;12.840;2022-12-07T16:55:57;14.98;;;9.70;;
25045;SDS011;13044;49.304;12.840;2022-12-07T16:58:24;14.35;;;9.23;;
25045;SDS011;13044;49.304;12.840;2022-12-07T17:00:51;11.50;;;7.30;;
25045;SDS011;13044;49.304;12.840;2022-12-07T17:03:18;13.32;;;7.78;;
25045;SDS011;13044;49.304;12.840;2022-12-07T17:05:46;16.85;;;9.95;;
25045;SDS011;13044;49.304;12.840;2022-12-07T17:08:14;12.77;;;7.47;;
25045;SDS011;13044;49.304;12.840;2022-12-07T17:10:43;14.93;;;8.80;;
25045;SDS011;13044;49.304;12.840;2022-12-07T17:13:11;8.93;;;5.90;;
25045;SDS011;13044;49.304;12.840;2022-12-07T17:15:58;9.82;;;5.60;;
25045;SDS011;13044;49.304;12.840;2022-12-07T17:18:32;8.38;;;5.60;;
25045;SDS011;13044;49.304;12.840;2022-12-07T17:21:02;10.07;;;5.10;;
25045;SDS011;13044;49.304;12.840;2022-12-07T17:23:32;13.15;;;7.57;;
25045;SDS011;13044;49.304;12.840;2022-12-07T17:26:03;9.50;;;6.22;;
25045;SDS011;13044;49.304;12.840;2022-12-07T17:28:33;10.50;;;6.70;;
25045;SDS011;13044;49.304;12.840;2022-12-07T17:31:03;11.18;;;6.57;;